createdAt,value
2022-11-01T00:02:06.192Z,100.00
2022-11-01T00:04:33.366Z,100.00
2022-11-01T00:06:59.982Z,100.00
2022-11-01T00:09:26.726Z,100.00
2022-11-01T00:11:53.315Z,100.00
2022-11-01T00:14:20.786Z,100.00
2022-11-01T00:16:47.399Z,100.00
2022-11-01T00:19:14.465Z,100.00
2022-11-01T00:21:41.132Z,100.00
2022-11-01T00:24:08.143Z,100.00
2022-11-01T00:26:35.105Z,100.00
2022-11-01T00:29:01.876Z,100.00
2022-11-01T00:31:28.670Z,100.00
2022-11-01T00:33:55.650Z,100.00
2022-11-01T00:36:22.227Z,100.00
2022-11-01T00:38:52.780Z,100.00
2022-11-01T00:41:20.918Z,100.00
2022-11-01T00:43:47.943Z,100.00
2022-11-01T00:46:14.966Z,100.00
2022-11-01T00:48:41.556Z,100.00
2022-11-01T00:51:08.198Z,100.00
2022-11-01T00:53:35.032Z,100.00
2022-11-01T00:56:03.621Z,100.00
2022-11-01T00:58:30.296Z,100.00
2022-11-01T01:00:57.028Z,100.00
2022-11-01T01:03:23.837Z,100.00
2022-11-01T01:05:53.013Z,100.00
2022-11-01T01:08:20.846Z,100.00
2022-11-01T01:10:47.854Z,100.00
2022-11-01T01:13:14.539Z,100.00
2022-11-01T01:15:41.529Z,100.00
2022-11-01T01:18:09.725Z,100.00
2022-11-01T01:20:36.444Z,100.00
2022-11-01T01:23:03.114Z,100.00
2022-11-01T01:25:29.911Z,100.00
2022-11-01T01:27:56.773Z,100.00
2022-11-01T01:30:24.113Z,100.00
2022-11-01T01:32:50.924Z,100.00
2022-11-01T01:35:17.634Z,100.00
2022-11-01T01:37:44.636Z,100.00
2022-11-01T01:40:11.325Z,100.00
2022-11-01T01:42:39.991Z,100.00
2022-11-01T01:45:24.307Z,100.00
2022-11-01T01:47:53.106Z,100.00
2022-11-01T01:50:19.637Z,100.00
2022-11-01T01:53:18.732Z,100.00
2022-11-01T01:56:01.572Z,100.00
2022-11-01T01:58:42.295Z,100.00
2022-11-01T02:01:09.004Z,100.00
2022-11-01T02:03:37.662Z,100.00
2022-11-01T02:06:11.458Z,100.00
2022-11-01T02:08:53.204Z,100.00
2022-11-01T02:11:20.786Z,100.00
2022-11-01T02:13:47.804Z,100.00
2022-11-01T02:16:32.645Z,100.00
2022-11-01T02:19:20.717Z,100.00
2022-11-01T02:22:09.128Z,100.00
2022-11-01T02:24:51.035Z,100.00
2022-11-01T02:27:32.500Z,100.00
2022-11-01T02:30:13.015Z,100.00
2022-11-01T02:33:02.181Z,100.00
2022-11-01T02:35:51.437Z,100.00
2022-11-01T02:38:40.254Z,100.00
2022-11-01T02:41:28.048Z,100.00
2022-11-01T02:43:56.602Z,100.00
2022-11-01T02:46:42.908Z,100.00
2022-11-01T02:49:13.799Z,100.00
2022-11-01T02:51:42.876Z,100.00
2022-11-01T02:54:17.196Z,100.00
2022-11-01T02:56:44.227Z,100.00
2022-11-01T02:59:19.775Z,100.00
2022-11-01T03:02:10.191Z,100.00
2022-11-01T03:04:37.335Z,100.00
2022-11-01T03:07:09.420Z,100.00
2022-11-01T03:09:36.986Z,100.00
2022-11-01T03:12:21.790Z,100.00
2022-11-01T03:15:21.142Z,100.00
2022-11-01T03:17:52.927Z,100.00
2022-11-01T03:20:22.722Z,100.00
2022-11-01T03:22:54.752Z,100.00
2022-11-01T03:25:40.272Z,100.00
2022-11-01T03:28:09.526Z,100.00
2022-11-01T03:30:42.083Z,100.00
2022-11-01T03:33:13.290Z,100.00
2022-11-01T03:35:42.514Z,100.00
2022-11-01T03:38:13.762Z,100.00
2022-11-01T03:40:44.628Z,100.00
2022-11-01T03:43:16.086Z,100.00
2022-11-01T03:45:43.564Z,100.00
2022-11-01T03:48:10.664Z,100.00
2022-11-01T03:50:38.367Z,100.00
2022-11-01T03:53:04.946Z,100.00
2022-11-01T03:55:31.564Z,100.00
2022-11-01T03:58:00.111Z,100.00
2022-11-01T04:00:32.753Z,100.00
2022-11-01T04:03:00.372Z,100.00
2022-11-01T04:05:29.606Z,100.00
2022-11-01T04:07:56.574Z,100.00
2022-11-01T04:10:25.302Z,100.00
2022-11-01T04:12:53.127Z,100.00
2022-11-01T04:15:39.986Z,100.00
2022-11-01T04:18:35.531Z,100.00
2022-11-01T04:21:13.406Z,100.00
2022-11-01T04:23:40.995Z,100.00
2022-11-01T04:26:10.554Z,100.00
2022-11-01T04:28:37.175Z,100.00
2022-11-01T04:31:04.579Z,100.00
2022-11-01T04:33:31.367Z,100.00
2022-11-01T04:35:58.180Z,100.00
2022-11-01T04:38:24.770Z,100.00
2022-11-01T04:40:51.336Z,100.00
2022-11-01T04:43:17.905Z,100.00
2022-11-01T04:45:44.548Z,100.00
2022-11-01T04:48:13.743Z,100.00
2022-11-01T04:50:52.964Z,100.00
2022-11-01T04:53:19.571Z,100.00
2022-11-01T04:55:46.217Z,100.00
2022-11-01T04:58:14.675Z,100.00
2022-11-01T05:00:43.878Z,100.00
2022-11-01T05:03:11.573Z,100.00
2022-11-01T05:05:39.214Z,100.00
2022-11-01T05:08:08.599Z,100.00
2022-11-01T05:10:38.316Z,100.00
2022-11-01T05:13:05.969Z,100.00
2022-11-01T05:15:33.102Z,100.00
2022-11-01T05:18:00.086Z,100.00
2022-11-01T05:20:26.761Z,100.00
2022-11-01T05:22:58.343Z,100.00
2022-11-01T05:25:25.068Z,100.00
2022-11-01T05:27:51.633Z,100.00
2022-11-01T05:30:18.326Z,100.00
2022-11-01T05:32:44.931Z,100.00
2022-11-01T05:35:11.482Z,100.00
2022-11-01T05:37:38.064Z,100.00
2022-11-01T05:40:05.181Z,100.00
2022-11-01T05:42:31.764Z,100.00
2022-11-01T05:44:58.380Z,100.00
2022-11-01T05:47:24.914Z,100.00
2022-11-01T05:49:51.476Z,100.00
2022-11-01T05:52:18.027Z,100.00
2022-11-01T05:54:44.622Z,100.00
2022-11-01T05:57:11.181Z,100.00
2022-11-01T05:59:37.766Z,100.00
2022-11-01T06:02:04.450Z,100.00
2022-11-01T06:04:31.172Z,100.00
2022-11-01T06:06:57.808Z,100.00
2022-11-01T06:09:24.429Z,100.00
2022-11-01T06:11:51.140Z,100.00
2022-11-01T06:14:17.866Z,100.00
2022-11-01T06:16:44.701Z,100.00
2022-11-01T06:19:11.345Z,100.00
2022-11-01T06:21:37.916Z,100.00
2022-11-01T06:24:04.737Z,100.00
2022-11-01T06:26:31.463Z,100.00
2022-11-01T06:29:01.014Z,100.00
2022-11-01T06:31:27.944Z,100.00
2022-11-01T06:33:54.645Z,100.00
2022-11-01T06:36:22.417Z,100.00
2022-11-01T06:38:49.738Z,100.00
2022-11-01T06:41:16.602Z,100.00
2022-11-01T06:43:43.221Z,100.00
2022-11-01T06:46:09.789Z,100.00
2022-11-01T06:48:36.502Z,100.00
2022-11-01T06:51:04.528Z,100.00
2022-11-01T06:53:31.689Z,100.00
2022-11-01T06:56:00.031Z,100.00
2022-11-01T06:58:27.268Z,100.00
2022-11-01T07:00:54.264Z,100.00
2022-11-01T07:03:21.098Z,100.00
2022-11-01T07:05:49.612Z,100.00
2022-11-01T07:08:16.273Z,100.00
2022-11-01T07:10:43.864Z,100.00
2022-11-01T07:13:12.909Z,100.00
2022-11-01T07:15:39.743Z,100.00
2022-11-01T07:18:08.389Z,100.00
2022-11-01T07:20:41.412Z,100.00
2022-11-01T07:23:16.545Z,100.00
2022-11-01T07:25:44.044Z,100.00
2022-11-01T07:28:11.426Z,100.00
2022-11-01T07:30:38.932Z,100.00
2022-11-01T07:33:05.896Z,100.00
2022-11-01T07:35:34.049Z,100.00
2022-11-01T07:38:03.876Z,100.00
2022-11-01T07:40:35.286Z,100.00
2022-11-01T07:43:02.337Z,100.00
2022-11-01T07:45:31.303Z,100.00
2022-11-01T07:48:03.604Z,100.00
2022-11-01T07:50:32.072Z,100.00
2022-11-01T07:53:06.378Z,100.00
2022-11-01T07:55:34.231Z,100.00
2022-11-01T07:58:01.351Z,100.00
2022-11-01T08:00:28.768Z,100.00
2022-11-01T08:03:05.875Z,100.00
2022-11-01T08:05:33.568Z,100.00
2022-11-01T08:08:00.636Z,100.00
2022-11-01T08:10:28.822Z,100.00
2022-11-01T08:13:27.705Z,100.00
2022-11-01T08:15:54.361Z,100.00
2022-11-01T08:18:23.326Z,100.00
2022-11-01T08:20:51.129Z,100.00
2022-11-01T08:23:17.755Z,100.00
2022-11-01T08:25:45.125Z,100.00
2022-11-01T08:28:14.845Z,100.00
2022-11-01T08:30:43.482Z,100.00
2022-11-01T08:33:10.745Z,100.00
2022-11-01T08:35:37.683Z,100.00
2022-11-01T08:38:04.708Z,100.00
2022-11-01T08:40:33.503Z,100.00
2022-11-01T08:43:01.508Z,100.00
2022-11-01T08:45:29.042Z,100.00
2022-11-01T08:48:03.724Z,100.00
2022-11-01T08:50:31.550Z,100.00
2022-11-01T08:52:58.162Z,100.00
2022-11-01T08:55:25.222Z,100.00
2022-11-01T08:57:51.957Z,100.00
2022-11-01T09:00:18.759Z,100.00
2022-11-01T09:02:46.029Z,100.00
2022-11-01T09:05:13.011Z,100.00
2022-11-01T09:07:39.966Z,100.00
2022-11-01T09:10:07.841Z,100.00
2022-11-01T09:12:35.170Z,100.00
2022-11-01T09:15:01.962Z,100.00
2022-11-01T09:17:28.625Z,100.00
2022-11-01T09:19:55.464Z,100.00
2022-11-01T09:22:23.203Z,100.00
2022-11-01T09:24:49.935Z,100.00
2022-11-01T09:27:16.578Z,100.00
2022-11-01T09:29:45.323Z,100.00
2022-11-01T09:32:14.686Z,100.00
2022-11-01T09:34:41.415Z,100.00
2022-11-01T09:37:08.009Z,100.00
2022-11-01T09:39:34.611Z,100.00
2022-11-01T09:42:11.584Z,100.00
2022-11-01T09:44:44.183Z,100.00
2022-11-01T09:47:19.061Z,100.00
2022-11-01T09:49:48.840Z,100.00
2022-11-01T09:56:12.473Z,97.96
2022-11-01T09:58:46.048Z,98.85
2022-11-01T10:01:39.820Z,96.51
2022-11-01T10:05:01.723Z,95.12
2022-11-01T10:07:39.949Z,92.96
2022-11-01T10:10:25.103Z,92.29
2022-11-01T10:13:18.951Z,89.72
2022-11-01T10:15:57.553Z,88.36
2022-11-01T10:18:27.640Z,86.51
2022-11-01T10:21:01.689Z,89.34
2022-11-01T10:23:50.099Z,88.53
2022-11-01T10:26:28.277Z,86.19
2022-11-01T10:29:30.792Z,83.18
2022-11-01T10:31:59.118Z,83.34
2022-11-01T10:34:34.939Z,79.31
2022-11-01T10:37:29.104Z,79.87
2022-11-01T10:40:04.538Z,78.50
2022-11-01T10:42:33.230Z,77.31
2022-11-01T10:45:06.551Z,76.07
2022-11-01T10:47:33.255Z,74.94
2022-11-01T10:50:22.338Z,74.43
2022-11-01T10:52:48.906Z,72.99
2022-11-01T10:55:31.147Z,72.36
2022-11-01T10:58:06.603Z,71.99
2022-11-01T11:00:38.210Z,69.47
2022-11-01T11:03:17.685Z,70.05
2022-11-01T11:05:45.171Z,66.78
2022-11-01T11:08:17.440Z,67.12
2022-11-01T11:10:45.622Z,63.20
2022-11-01T11:13:15.245Z,61.74
2022-11-01T11:16:01.665Z,61.74
2022-11-01T11:18:31.756Z,58.41
2022-11-01T11:21:02.048Z,56.28
2022-11-01T11:23:31.037Z,56.73
2022-11-01T11:26:16.962Z,57.46
2022-11-01T11:28:51.732Z,55.94
2022-11-01T11:31:31.673Z,55.37
2022-11-01T11:33:59.951Z,55.34
2022-11-01T11:39:00.441Z,54.65
2022-11-01T11:41:39.239Z,53.86
2022-11-01T11:44:34.993Z,52.57
2022-11-01T11:47:03.265Z,53.08
2022-11-01T11:49:30.048Z,52.68
2022-11-01T11:51:56.708Z,53.57
2022-11-01T11:54:37.628Z,51.94
2022-11-01T11:57:29.970Z,52.82
2022-11-01T12:00:00.397Z,51.31
2022-11-01T12:02:31.738Z,53.55
2022-11-01T12:05:00.028Z,52.10
2022-11-01T12:07:40.056Z,52.04
2022-11-01T12:10:28.193Z,51.80
2022-11-01T12:12:56.885Z,50.82
2022-11-01T12:15:30.511Z,51.55
2022-11-01T12:18:10.289Z,50.64
2022-11-01T12:20:39.870Z,50.29
2022-11-01T12:23:10.676Z,50.90
2022-11-01T12:25:40.110Z,50.44
2022-11-01T12:28:39.682Z,50.17
2022-11-01T12:31:16.614Z,48.61
2022-11-01T12:33:52.449Z,49.87
2022-11-01T12:36:27.791Z,48.54
2022-11-01T12:39:32.042Z,48.72
2022-11-01T12:42:00.697Z,46.84
2022-11-01T12:44:37.618Z,47.80
2022-11-01T12:47:13.126Z,46.80
2022-11-01T12:49:53.480Z,48.17
2022-11-01T12:52:20.116Z,46.28
2022-11-01T12:54:58.550Z,45.11
2022-11-01T12:57:25.427Z,45.86
2022-11-01T12:59:52.325Z,46.53
2022-11-01T13:02:49.912Z,46.72
2022-11-01T13:05:23.125Z,45.88
2022-11-01T13:08:27.105Z,46.75
2022-11-01T13:10:57.221Z,45.20
2022-11-01T13:13:48.887Z,46.40
2022-11-01T13:16:25.658Z,46.15
2022-11-01T13:18:58.398Z,46.45
2022-11-01T13:21:45.811Z,46.14
2022-11-01T13:24:33.758Z,43.79
2022-11-01T13:27:12.350Z,42.77
2022-11-01T13:29:45.433Z,42.46
2022-11-01T13:32:23.004Z,43.91
2022-11-01T13:35:02.601Z,43.34
2022-11-01T13:37:36.664Z,43.75
2022-11-01T13:40:32.344Z,43.70
2022-11-01T13:43:05.294Z,45.19
2022-11-01T13:46:00.110Z,44.43
2022-11-01T13:48:35.744Z,45.39
2022-11-01T13:51:19.813Z,43.50
2022-11-01T13:53:57.796Z,44.87
2022-11-01T13:56:31.528Z,43.16
2022-11-01T13:58:58.881Z,42.85
2022-11-01T14:01:36.209Z,42.35
2022-11-01T14:04:14.750Z,42.76
2022-11-01T14:06:43.814Z,43.15
2022-11-01T14:09:28.847Z,42.73
2022-11-01T14:11:58.104Z,42.83
2022-11-01T14:14:30.978Z,42.80
2022-11-01T14:17:16.067Z,42.97
2022-11-01T14:19:43.521Z,44.48
2022-11-01T14:22:22.446Z,45.05
2022-11-01T14:24:57.991Z,44.22
2022-11-01T14:27:39.353Z,47.57
2022-11-01T14:30:14.580Z,50.28
2022-11-01T14:32:43.275Z,52.33
2022-11-01T14:35:12.754Z,55.74
2022-11-01T14:37:47.512Z,53.64
2022-11-01T14:40:41.736Z,52.33
2022-11-01T14:43:22.908Z,51.81
2022-11-01T14:45:58.016Z,53.96
2022-11-01T14:48:37.990Z,55.52
2022-11-01T14:51:23.036Z,57.30
2022-11-01T14:53:57.021Z,58.54
2022-11-01T14:56:35.819Z,62.03
2022-11-01T14:59:33.589Z,66.14
2022-11-01T15:02:03.726Z,68.13
2022-11-01T15:04:41.323Z,69.37
2022-11-01T15:07:27.620Z,70.84
2022-11-01T15:10:02.692Z,72.57
2022-11-01T15:12:36.579Z,74.14
2022-11-01T15:15:04.118Z,73.29
2022-11-01T15:17:34.735Z,75.71
2022-11-01T15:20:13.088Z,78.21
2022-11-01T15:22:42.591Z,80.76
2022-11-01T15:25:20.410Z,83.27
2022-11-01T15:27:47.507Z,84.65
2022-11-01T15:30:19.793Z,86.79
2022-11-01T15:32:49.955Z,87.95
2022-11-01T15:35:26.014Z,88.46
2022-11-01T15:37:59.504Z,93.55
2022-11-01T15:40:32.637Z,94.15
2022-11-01T15:43:01.638Z,95.80
2022-11-01T15:45:31.971Z,100.00
2022-11-01T15:48:02.227Z,99.42
2022-11-01T15:50:34.448Z,100.00
2022-11-01T15:53:04.443Z,100.00
2022-11-01T15:55:38.904Z,100.00
2022-11-01T15:58:16.109Z,100.00
2022-11-01T16:00:47.208Z,100.00
2022-11-01T16:03:29.454Z,100.00
2022-11-01T16:06:03.360Z,100.00
2022-11-01T16:08:40.160Z,100.00
2022-11-01T16:11:07.660Z,100.00
2022-11-01T16:13:35.218Z,100.00
2022-11-01T16:16:03.266Z,100.00
2022-11-01T16:18:34.775Z,100.00
2022-11-01T16:21:04.361Z,100.00
2022-11-01T16:23:32.422Z,100.00
2022-11-01T16:26:06.698Z,100.00
2022-11-01T16:28:44.071Z,100.00
2022-11-01T16:31:28.999Z,100.00
2022-11-01T16:33:57.320Z,100.00
2022-11-01T16:36:38.096Z,100.00
2022-11-01T16:39:29.126Z,100.00
2022-11-01T16:41:56.138Z,100.00
2022-11-01T16:44:23.646Z,100.00
2022-11-01T16:46:50.943Z,100.00
2022-11-01T16:49:22.764Z,100.00
2022-11-01T16:51:50.141Z,100.00
2022-11-01T16:54:16.806Z,100.00
2022-11-01T16:56:49.523Z,100.00
2022-11-01T16:59:37.858Z,100.00
2022-11-01T17:02:21.107Z,100.00
2022-11-01T17:04:50.761Z,100.00
2022-11-01T17:07:18.319Z,100.00
2022-11-01T17:09:58.402Z,100.00
2022-11-01T17:12:25.191Z,100.00
2022-11-01T17:14:52.594Z,100.00
2022-11-01T17:17:24.774Z,100.00
2022-11-01T17:19:59.163Z,100.00
2022-11-01T17:22:34.359Z,100.00
2022-11-01T17:25:02.306Z,100.00
2022-11-01T17:27:29.698Z,100.00
2022-11-01T17:29:56.279Z,100.00
2022-11-01T17:32:22.844Z,100.00
2022-11-01T17:34:49.529Z,100.00
2022-11-01T17:37:17.602Z,100.00
2022-11-01T17:40:25.181Z,100.00
2022-11-01T17:42:52.468Z,100.00
2022-11-01T17:45:19.811Z,100.00
2022-11-01T17:47:46.830Z,100.00
2022-11-01T17:50:15.415Z,100.00
2022-11-01T17:52:43.001Z,100.00
2022-11-01T17:55:10.488Z,100.00
2022-11-01T17:57:37.254Z,100.00
2022-11-01T18:00:07.950Z,100.00
2022-11-01T18:02:34.572Z,100.00
2022-11-01T18:05:01.209Z,100.00
2022-11-01T18:07:36.643Z,100.00
2022-11-01T18:10:26.566Z,100.00
2022-11-01T18:13:01.931Z,100.00
2022-11-01T18:15:45.566Z,100.00
2022-11-01T18:18:26.245Z,100.00
2022-11-01T18:21:12.181Z,100.00
2022-11-01T18:23:42.091Z,100.00
2022-11-01T18:26:18.979Z,100.00
2022-11-01T18:28:45.726Z,100.00
2022-11-01T18:31:25.895Z,100.00
2022-11-01T18:34:24.739Z,100.00
2022-11-01T18:36:58.735Z,100.00
2022-11-01T18:39:36.702Z,100.00
2022-11-01T18:42:08.480Z,100.00
2022-11-01T18:44:35.279Z,100.00
2022-11-01T18:47:12.319Z,100.00
2022-11-01T18:49:38.916Z,100.00
2022-11-01T18:52:11.958Z,100.00
2022-11-01T18:54:56.729Z,100.00
2022-11-01T18:57:24.699Z,100.00
2022-11-01T18:59:53.168Z,100.00
2022-11-01T19:02:27.131Z,100.00
2022-11-01T19:05:14.016Z,100.00
2022-11-01T19:08:09.163Z,100.00
2022-11-01T19:10:28.588Z,100.00
2022-11-01T19:12:55.381Z,100.00
2022-11-01T19:15:22.047Z,100.00
2022-11-01T19:17:55.022Z,100.00
2022-11-01T19:20:32.534Z,100.00
2022-11-01T19:23:08.885Z,100.00
2022-11-01T19:25:36.820Z,100.00
2022-11-01T19:28:16.832Z,100.00
2022-11-01T19:30:51.394Z,100.00
2022-11-01T19:33:38.891Z,100.00
2022-11-01T19:36:14.661Z,100.00
2022-11-01T19:38:45.056Z,100.00
2022-11-01T19:41:15.505Z,100.00
2022-11-01T19:43:42.278Z,100.00
2022-11-01T19:46:13.499Z,100.00
2022-11-01T19:48:40.185Z,100.00
2022-11-01T19:51:33.249Z,100.00
2022-11-01T19:54:00.008Z,100.00
2022-11-01T19:56:31.135Z,100.00
2022-11-01T19:58:59.067Z,100.00
2022-11-01T20:01:31.440Z,100.00
2022-11-01T20:04:29.140Z,100.00
2022-11-01T20:07:01.318Z,100.00
2022-11-01T20:09:30.476Z,100.00
2022-11-01T20:11:57.319Z,100.00
2022-11-01T20:14:23.952Z,100.00
2022-11-01T20:16:50.637Z,100.00
2022-11-01T20:19:17.911Z,100.00
2022-11-01T20:21:44.865Z,100.00
2022-11-01T20:26:56.353Z,100.00
2022-11-01T20:29:23.357Z,100.00
2022-11-01T20:31:50.011Z,100.00
2022-11-01T20:34:16.655Z,100.00
2022-11-01T20:36:46.766Z,100.00
2022-11-01T20:39:22.707Z,100.00
2022-11-01T20:41:51.771Z,100.00
2022-11-01T20:44:18.620Z,100.00
2022-11-01T20:46:46.057Z,100.00
2022-11-01T20:49:12.959Z,100.00
2022-11-01T20:51:40.674Z,100.00
2022-11-01T20:54:07.480Z,100.00
2022-11-01T20:56:34.105Z,100.00
2022-11-01T21:01:28.444Z,100.00
2022-11-01T21:03:55.100Z,100.00
2022-11-01T21:06:22.332Z,100.00
2022-11-01T21:08:49.106Z,100.00
2022-11-01T21:11:44.138Z,100.00
2022-11-01T21:14:18.858Z,100.00
2022-11-01T21:16:45.826Z,100.00
2022-11-01T21:19:32.945Z,100.00
2022-11-01T21:21:59.682Z,100.00
2022-11-01T21:24:37.015Z,100.00
2022-11-01T21:27:12.686Z,100.00
2022-11-01T21:29:42.976Z,100.00
2022-11-01T21:32:23.711Z,100.00
2022-11-01T21:34:51.321Z,100.00
2022-11-01T21:37:21.030Z,100.00
2022-11-01T21:39:53.217Z,100.00
2022-11-01T21:42:34.273Z,100.00
2022-11-01T21:45:16.820Z,100.00
2022-11-01T21:47:45.799Z,100.00
2022-11-01T21:50:12.526Z,100.00
2022-11-01T21:52:39.118Z,100.00
2022-11-01T21:55:05.852Z,100.00
2022-11-01T21:57:32.800Z,100.00
2022-11-01T21:59:59.433Z,100.00
2022-11-01T22:02:26.181Z,100.00
2022-11-01T22:04:52.951Z,100.00
2022-11-01T22:07:21.169Z,100.00
2022-11-01T22:09:47.793Z,100.00
2022-11-01T22:12:15.691Z,100.00
2022-11-01T22:14:42.291Z,100.00
2022-11-01T22:17:08.961Z,100.00
2022-11-01T22:19:35.584Z,100.00
2022-11-01T22:22:02.223Z,100.00
2022-11-01T22:24:29.646Z,100.00
2022-11-01T22:26:56.430Z,100.00
2022-11-01T22:29:23.065Z,100.00
2022-11-01T22:31:49.795Z,100.00
2022-11-01T22:34:17.449Z,100.00
2022-11-01T22:36:44.045Z,100.00
2022-11-01T22:39:17.107Z,100.00
2022-11-01T22:41:44.123Z,100.00
2022-11-01T22:44:16.931Z,100.00
2022-11-01T22:46:58.159Z,100.00
2022-11-01T22:49:30.287Z,100.00
2022-11-01T22:51:59.948Z,100.00
2022-11-01T22:54:40.978Z,100.00
2022-11-01T22:57:24.186Z,100.00
2022-11-01T22:59:57.699Z,100.00
2022-11-01T23:02:35.091Z,100.00
2022-11-01T23:05:07.590Z,100.00
2022-11-01T23:07:37.989Z,100.00
2022-11-01T23:10:20.059Z,100.00
2022-11-01T23:13:05.870Z,100.00
2022-11-01T23:15:34.214Z,100.00
2022-11-01T23:18:20.777Z,100.00
2022-11-01T23:20:55.081Z,100.00
2022-11-01T23:23:23.111Z,100.00
2022-11-01T23:25:51.119Z,100.00
2022-11-01T23:28:19.092Z,100.00
2022-11-01T23:30:48.121Z,100.00
2022-11-01T23:33:17.122Z,100.00
2022-11-01T23:35:55.871Z,100.00
2022-11-01T23:38:51.126Z,100.00
2022-11-01T23:41:22.265Z,100.00
2022-11-01T23:43:51.245Z,100.00
2022-11-01T23:46:19.030Z,100.00
2022-11-01T23:48:46.659Z,100.00
2022-11-01T23:51:21.325Z,100.00
2022-11-01T23:53:51.221Z,100.00
2022-11-01T23:56:20.359Z,100.00
2022-11-01T23:58:54.204Z,100.00
